Bondville, Illinois
Current Conditions -  °F | °C
As of 4:53 AM on Sunday 23 Nov 2014 (Local Time) from KCMI Reporting Station
Overcast Overcast  
Wind Chill: 42°   Ceiling: 8000
Heat Index: 48°   Visibility: 10mi
Dew Point: 42°   Wind: 14mph
Humidity: 80%   Direction: 160°SSE
Pressure: 29.81"   Gusts: NA
Location:  40.11°N, 88.37°W
Report Text: KCMI 231053Z AUTO 16012KT 10SM OVC080 09/06 A2981 RMK AO2 RAB31E41 SLP095 P0000 T00890056 $
Loading
Personal Weather Stations






























Interactive Weather Map New forecast layout! Learn more

10-Day Weather Forecast

Advertisements
Track Severe Weather on mobile